createdAt,value
2018-06-28T00:00:07.175Z,100770.00
2018-06-28T00:02:35.147Z,100763.00
2018-06-28T00:05:03.249Z,100753.00
2018-06-28T00:07:31.149Z,100756.00
2018-06-28T00:09:59.054Z,100755.00
2018-06-28T00:12:26.965Z,100753.00
2018-06-28T00:14:54.818Z,100756.00
2018-06-28T00:17:22.744Z,100756.00
2018-06-28T00:19:50.674Z,100755.00
2018-06-28T00:22:18.611Z,100752.00
2018-06-28T00:24:46.537Z,100762.00
2018-06-28T00:39:02.317Z,100753.00
2018-06-28T00:41:30.215Z,100753.00
2018-06-28T00:43:58.034Z,100750.00
2018-06-28T00:46:25.881Z,100755.00
2018-06-28T00:48:53.933Z,100753.00
2018-06-28T00:51:21.809Z,100749.00
2018-06-28T00:53:49.612Z,100748.00
2018-06-28T00:56:17.587Z,100743.00
2018-06-28T00:58:45.367Z,100739.00
2018-06-28T01:01:13.213Z,100736.00
2018-06-28T01:03:41.070Z,100749.00
2018-06-28T01:06:08.879Z,100736.00
2018-06-28T01:08:36.791Z,100741.00
2018-06-28T01:11:04.704Z,100739.00
2018-06-28T01:13:32.669Z,100732.00
2018-06-28T01:16:00.487Z,100734.00
2018-06-28T01:18:28.361Z,100732.00
2018-06-28T01:20:56.159Z,100733.00
2018-06-28T01:23:23.980Z,100730.00
2018-06-28T01:25:51.765Z,100727.00
2018-06-28T01:28:19.639Z,100727.00
2018-06-28T01:30:47.509Z,100728.00
2018-06-28T01:33:15.386Z,100727.00
2018-06-28T01:35:43.292Z,100731.00
2018-06-28T01:38:11.273Z,100726.00
2018-06-28T01:40:39.115Z,100726.00
2018-06-28T01:43:45.284Z,100727.00
2018-06-28T01:46:13.252Z,100721.00
2018-06-28T01:48:41.138Z,100723.00
2018-06-28T01:51:09.063Z,100721.00
2018-06-28T01:53:36.897Z,100714.00
2018-06-28T01:56:04.839Z,100716.00
2018-06-28T01:58:32.656Z,100707.00
2018-06-28T02:01:00.465Z,100719.00
2018-06-28T02:03:28.397Z,100703.00
2018-06-28T02:05:56.329Z,100699.00
2018-06-28T02:08:24.158Z,100707.00
2018-06-28T02:10:52.035Z,100703.00
2018-06-28T02:13:19.983Z,100710.00
2018-06-28T02:15:47.877Z,100702.00
2018-06-28T02:18:15.664Z,100702.00
2018-06-28T02:20:43.519Z,100697.00
2018-06-28T02:23:11.347Z,100695.00
2018-06-28T02:25:39.200Z,100705.00
2018-06-28T02:28:07.029Z,100700.00
2018-06-28T02:30:34.910Z,100684.00
2018-06-28T02:33:02.761Z,100684.00
2018-06-28T02:35:30.575Z,100694.00
2018-06-28T02:37:58.460Z,100675.00
2018-06-28T02:40:26.235Z,100679.00
2018-06-28T02:42:54.098Z,100672.00
2018-06-28T02:45:21.944Z,100672.00
2018-06-28T02:47:49.771Z,100672.00
2018-06-28T02:50:17.699Z,100674.00
2018-06-28T02:52:45.558Z,100678.00
2018-06-28T02:55:13.399Z,100688.00
2018-06-28T02:57:41.280Z,100692.00
2018-06-28T03:00:09.151Z,100683.00
2018-06-28T03:02:36.938Z,100683.00
2018-06-28T03:05:04.818Z,100687.00
2018-06-28T03:07:32.699Z,100683.00
2018-06-28T03:10:00.508Z,100683.00
2018-06-28T03:12:28.361Z,100684.00
2018-06-28T03:14:56.209Z,100676.00
2018-06-28T03:17:24.030Z,100684.00
2018-06-28T03:19:51.915Z,100686.00
2018-06-28T03:22:19.799Z,100686.00
2018-06-28T03:24:47.590Z,100688.00
2018-06-28T03:27:15.351Z,100689.00
2018-06-28T03:29:43.137Z,100678.00
2018-06-28T03:32:10.949Z,100672.00
2018-06-28T03:34:38.840Z,100682.00
2018-06-28T03:37:06.710Z,100674.00
2018-06-28T03:39:34.587Z,100669.00
2018-06-28T03:42:02.480Z,100668.00
2018-06-28T03:44:30.339Z,100673.00
2018-06-28T03:46:58.239Z,100673.00
2018-06-28T03:49:26.121Z,100675.00
2018-06-28T03:51:53.984Z,100664.00
2018-06-28T03:54:21.831Z,100672.00
2018-06-28T03:56:49.578Z,100670.00
2018-06-28T03:59:17.572Z,100671.00
2018-06-28T04:01:45.385Z,100667.00
2018-06-28T04:04:13.199Z,100675.00
2018-06-28T04:06:41.061Z,100678.00
2018-06-28T04:09:10.319Z,100671.00
2018-06-28T04:11:38.167Z,100670.00
2018-06-28T04:14:06.113Z,100662.00
2018-06-28T04:16:34.179Z,100666.00
2018-06-28T04:19:02.034Z,100669.00
2018-06-28T04:21:29.900Z,100670.00
2018-06-28T04:23:57.790Z,100671.00
2018-06-28T04:26:25.632Z,100669.00
2018-06-28T04:28:53.443Z,100671.00
2018-06-28T04:31:21.295Z,100670.00
2018-06-28T04:33:49.116Z,100671.00
2018-06-28T04:36:16.997Z,100667.00
2018-06-28T04:38:44.770Z,100676.00
2018-06-28T04:41:12.665Z,100667.00
2018-06-28T04:43:40.510Z,100673.00
2018-06-28T04:46:08.439Z,100672.00
2018-06-28T04:48:36.309Z,100667.00
2018-06-28T04:51:04.177Z,100668.00
2018-06-28T04:53:32.055Z,100664.00
2018-06-28T04:55:59.850Z,100663.00
2018-06-28T04:58:27.725Z,100659.00
2018-06-28T05:00:55.667Z,100658.00
2018-06-28T05:03:23.508Z,100654.00
2018-06-28T05:05:51.358Z,100643.00
2018-06-28T05:08:19.236Z,100641.00
2018-06-28T05:10:47.092Z,100634.00
2018-06-28T05:13:44.943Z,100636.00
2018-06-28T05:16:12.797Z,100629.00
2018-06-28T05:18:40.630Z,100647.00
2018-06-28T05:21:08.514Z,100644.00
2018-06-28T05:23:36.393Z,100639.00
2018-06-28T05:26:04.530Z,100638.00
2018-06-28T05:28:32.328Z,100647.00
2018-06-28T05:31:00.942Z,100646.00
2018-06-28T05:33:28.833Z,100646.00
2018-06-28T05:35:56.741Z,100635.00
2018-06-28T05:38:24.645Z,100629.00
2018-06-28T05:40:52.504Z,100633.00
2018-06-28T05:43:20.358Z,100631.00
2018-06-28T05:45:48.253Z,100626.00
2018-06-28T05:48:16.165Z,100624.00
2018-06-28T05:50:44.060Z,100616.00
2018-06-28T05:53:11.932Z,100607.00
2018-06-28T05:55:39.801Z,100601.00
2018-06-28T05:58:07.621Z,100606.00
2018-06-28T06:00:35.431Z,100607.00
2018-06-28T06:03:03.280Z,100603.00
2018-06-28T06:05:47.479Z,100595.00
2018-06-28T06:08:15.317Z,100588.00
2018-06-28T06:10:50.248Z,100609.00
2018-06-28T06:13:18.033Z,100600.00
2018-06-28T06:15:45.790Z,100596.00
2018-06-28T06:18:13.731Z,100596.00
2018-06-28T06:20:41.600Z,100598.00
2018-06-28T06:23:13.258Z,100573.00
2018-06-28T06:25:41.121Z,100563.00
2018-06-28T06:28:08.960Z,100587.00
2018-06-28T06:33:47.024Z,100579.00
2018-06-28T06:36:14.890Z,100555.00
2018-06-28T06:38:42.690Z,100549.00
2018-06-28T06:41:10.510Z,100555.00
2018-06-28T06:43:38.233Z,100570.00
2018-06-28T06:46:06.036Z,100554.00
2018-06-28T06:48:33.836Z,100583.00
2018-06-28T06:51:01.646Z,100540.00
2018-06-28T06:53:29.420Z,100570.00
2018-06-28T06:56:16.644Z,100554.00
2018-06-28T06:58:44.778Z,100567.00
2018-06-28T07:01:12.556Z,100533.00
2018-06-28T07:03:40.415Z,100551.00
2018-06-28T07:06:08.281Z,100533.00
2018-06-28T07:08:36.039Z,100569.00
2018-06-28T07:11:03.804Z,100576.00
2018-06-28T07:13:31.641Z,100569.00
2018-06-28T07:15:59.538Z,100548.00
2018-06-28T07:18:27.268Z,100572.00
2018-06-28T07:20:55.116Z,100567.00
2018-06-28T07:23:22.938Z,100557.00
2018-06-28T07:25:50.764Z,100552.00
2018-06-28T07:28:18.516Z,100554.00
2018-06-28T07:30:46.372Z,100540.00
2018-06-28T07:33:14.269Z,100515.00
2018-06-28T07:35:42.107Z,100534.00
2018-06-28T07:38:09.878Z,100461.00
2018-06-28T07:40:37.674Z,100512.00
2018-06-28T07:43:05.469Z,100523.00
2018-06-28T07:45:33.324Z,100532.00
2018-06-28T07:48:01.167Z,100539.00
2018-06-28T07:50:29.173Z,100528.00
2018-06-28T07:52:56.955Z,100524.00
2018-06-28T07:55:24.791Z,100522.00
2018-06-28T07:57:52.733Z,100510.00
2018-06-28T08:00:20.400Z,100511.00
2018-06-28T08:02:48.235Z,100512.00
2018-06-28T08:05:16.079Z,100509.00
2018-06-28T08:07:44.051Z,100512.00
2018-06-28T08:10:12.502Z,100514.00
2018-06-28T08:12:40.626Z,100521.00
2018-06-28T08:15:09.001Z,100520.00
2018-06-28T08:17:37.151Z,100518.00
2018-06-28T08:20:06.425Z,100516.00
2018-06-28T08:22:34.594Z,100522.00
2018-06-28T08:25:02.884Z,100519.00
2018-06-28T08:27:31.156Z,100517.00
2018-06-28T08:29:59.718Z,100512.00
2018-06-28T08:32:28.033Z,100507.00
2018-06-28T08:34:56.309Z,100507.00
2018-06-28T08:37:24.440Z,100513.00
2018-06-28T08:39:52.928Z,100502.00
2018-06-28T08:42:21.196Z,100498.00
2018-06-28T08:44:49.316Z,100494.00
2018-06-28T08:47:17.602Z,100494.00
2018-06-28T08:49:45.824Z,100486.00
2018-06-28T08:52:14.029Z,100496.00
2018-06-28T08:54:42.282Z,100481.00
2018-06-28T08:57:10.530Z,100482.00
2018-06-28T08:59:38.796Z,100481.00
2018-06-28T09:02:07.109Z,100487.00
2018-06-28T09:04:35.393Z,100481.00
2018-06-28T09:07:03.726Z,100483.00
2018-06-28T09:09:31.971Z,100478.00
2018-06-28T09:12:00.150Z,100485.00
2018-06-28T09:17:26.331Z,100491.00
2018-06-28T09:19:54.156Z,100476.00
2018-06-28T09:22:22.053Z,100494.00
2018-06-28T09:24:49.892Z,100490.00
2018-06-28T09:27:17.797Z,100480.00
2018-06-28T09:29:45.676Z,100477.00
2018-06-28T09:32:13.551Z,100481.00
2018-06-28T09:34:41.427Z,100470.00
2018-06-28T09:37:09.425Z,100481.00
2018-06-28T09:39:37.271Z,100475.00
2018-06-28T09:42:06.004Z,100470.00
2018-06-28T09:44:33.833Z,100474.00
2018-06-28T09:47:01.557Z,100471.00
2018-06-28T09:49:29.448Z,100478.00
2018-06-28T09:51:57.368Z,100474.00
2018-06-28T09:54:25.146Z,100466.00
2018-06-28T09:56:53.063Z,100462.00
2018-06-28T09:59:20.930Z,100461.00
2018-06-28T10:01:48.807Z,100457.00
2018-06-28T10:04:16.784Z,100454.00
2018-06-28T10:06:44.867Z,100457.00
2018-06-28T10:09:12.596Z,100451.00
2018-06-28T10:11:40.517Z,100459.00
2018-06-28T10:14:08.388Z,100461.00
2018-06-28T10:16:36.216Z,100456.00
2018-06-28T10:19:04.112Z,100451.00
2018-06-28T10:21:31.958Z,100455.00
2018-06-28T10:23:59.720Z,100451.00
2018-06-28T10:26:27.505Z,100451.00
2018-06-28T10:28:55.324Z,100437.00
2018-06-28T10:31:23.140Z,100440.00
2018-06-28T10:33:50.979Z,100439.00
2018-06-28T10:36:18.836Z,100439.00
2018-06-28T10:38:46.657Z,100446.00
2018-06-28T10:41:14.463Z,100443.00
2018-06-28T10:43:42.268Z,100436.00
2018-06-28T10:46:10.112Z,100434.00
2018-06-28T10:48:37.908Z,100428.00
2018-06-28T10:51:06.030Z,100422.00
2018-06-28T10:53:33.839Z,100435.00
2018-06-28T10:56:01.691Z,100429.00
2018-06-28T10:58:29.592Z,100429.00
2018-06-28T11:00:57.506Z,100428.00
2018-06-28T11:03:25.393Z,100427.00
2018-06-28T11:05:53.175Z,100432.00
2018-06-28T11:08:21.120Z,100420.00
2018-06-28T11:10:48.897Z,100420.00
2018-06-28T11:13:16.683Z,100413.00
2018-06-28T11:15:44.634Z,100410.00
2018-06-28T11:18:12.365Z,100412.00
2018-06-28T11:20:40.084Z,100406.00
2018-06-28T11:23:07.867Z,100411.00
2018-06-28T11:25:35.644Z,100408.00
2018-06-28T11:28:03.526Z,100416.00
2018-06-28T11:30:31.284Z,100403.00
2018-06-28T11:32:59.098Z,100409.00
2018-06-28T11:35:26.852Z,100405.00
2018-06-28T11:37:54.628Z,100409.00
2018-06-28T11:40:22.419Z,100402.00
2018-06-28T11:42:50.245Z,100392.00
2018-06-28T11:45:18.005Z,100400.00
2018-06-28T11:47:45.870Z,100400.00
2018-06-28T11:50:13.660Z,100405.00
2018-06-28T11:52:41.485Z,100404.00
2018-06-28T11:55:09.227Z,100398.00
2018-06-28T11:57:37.001Z,100394.00
2018-06-28T12:00:05.282Z,100392.00
2018-06-28T12:02:33.140Z,100398.00
2018-06-28T12:05:01.051Z,100401.00
2018-06-28T12:07:28.892Z,100400.00
2018-06-28T12:09:56.585Z,100407.00
2018-06-28T12:12:24.404Z,100397.00
2018-06-28T12:14:52.212Z,100399.00
2018-06-28T12:17:20.082Z,100393.00
2018-06-28T12:19:48.018Z,100381.00
2018-06-28T12:22:15.959Z,100388.00
2018-06-28T12:24:43.715Z,100391.00
2018-06-28T12:27:11.512Z,100385.00
2018-06-28T12:29:39.340Z,100378.00
2018-06-28T12:32:07.258Z,100389.00
2018-06-28T12:34:35.105Z,100383.00
2018-06-28T12:37:02.904Z,100389.00
2018-06-28T12:39:30.674Z,100387.00
2018-06-28T12:41:58.526Z,100377.00
2018-06-28T12:44:26.360Z,100376.00
2018-06-28T12:49:02.492Z,100375.00
2018-06-28T12:51:41.881Z,100375.00
2018-06-28T12:54:09.824Z,100382.00
2018-06-28T12:56:38.876Z,100376.00
2018-06-28T12:59:07.977Z,100384.00
2018-06-28T13:01:35.805Z,100391.00
2018-06-28T13:04:03.724Z,100386.00
2018-06-28T13:06:31.534Z,100388.00
2018-06-28T13:08:59.886Z,100383.00
2018-06-28T13:11:27.999Z,100386.00
2018-06-28T13:13:55.889Z,100382.00
2018-06-28T13:16:26.792Z,100394.00
2018-06-28T13:18:54.603Z,100391.00
2018-06-28T13:21:22.507Z,100387.00
2018-06-28T13:23:50.380Z,100396.00
2018-06-28T13:26:18.608Z,100389.00
2018-06-28T13:28:46.585Z,100394.00
2018-06-28T13:31:14.432Z,100383.00
2018-06-28T13:33:42.365Z,100379.00
2018-06-28T13:36:10.223Z,100381.00
2018-06-28T13:38:38.096Z,100373.00
2018-06-28T13:41:06.277Z,100383.00
2018-06-28T13:43:33.993Z,100393.00
2018-06-28T13:46:02.121Z,100386.00
2018-06-28T13:48:30.293Z,100379.00
2018-06-28T13:50:58.154Z,100362.00
2018-06-28T13:53:26.021Z,100359.00
2018-06-28T13:55:53.911Z,100357.00
2018-06-28T13:58:21.727Z,100357.00
2018-06-28T14:00:49.639Z,100356.00
2018-06-28T14:03:17.906Z,100342.00
2018-06-28T14:05:45.704Z,100352.00
2018-06-28T14:08:13.550Z,100346.00
2018-06-28T14:10:41.391Z,100348.00
2018-06-28T14:13:09.443Z,100350.00
2018-06-28T14:15:37.265Z,100349.00
2018-06-28T14:18:05.285Z,100340.00
2018-06-28T14:20:33.154Z,100346.00
2018-06-28T14:23:01.037Z,100335.00
2018-06-28T14:25:28.981Z,100338.00
2018-06-28T14:27:56.826Z,100330.00
2018-06-28T14:30:24.646Z,100331.00
2018-06-28T14:32:52.489Z,100320.00
2018-06-28T14:35:20.288Z,100332.00
2018-06-28T14:37:48.108Z,100324.00
2018-06-28T14:40:16.024Z,100331.00
2018-06-28T14:42:43.906Z,100326.00
2018-06-28T14:45:11.820Z,100322.00
2018-06-28T14:47:39.704Z,100315.00
2018-06-28T14:50:07.645Z,100324.00
2018-06-28T14:52:35.456Z,100303.00
2018-06-28T14:55:03.721Z,100296.00
2018-06-28T14:57:31.520Z,100299.00
2018-06-28T14:59:59.393Z,100302.00
2018-06-28T15:02:27.253Z,100301.00
2018-06-28T15:04:55.225Z,100301.00
2018-06-28T15:07:42.197Z,100288.00
2018-06-28T15:10:10.160Z,100294.00
2018-06-28T15:12:38.044Z,100297.00
2018-06-28T15:15:06.216Z,100290.00
2018-06-28T15:17:34.166Z,100291.00
2018-06-28T15:20:01.991Z,100298.00
2018-06-28T15:22:29.820Z,100291.00
2018-06-28T15:24:57.622Z,100306.00
2018-06-28T15:27:25.439Z,100308.00
2018-06-28T15:29:53.298Z,100315.00
2018-06-28T15:32:21.177Z,100311.00
2018-06-28T15:34:49.020Z,100308.00
2018-06-28T15:37:16.860Z,100303.00
2018-06-28T15:39:44.682Z,100301.00
2018-06-28T15:42:12.532Z,100293.00
2018-06-28T15:44:40.379Z,100278.00
2018-06-28T15:47:08.298Z,100280.00
2018-06-28T15:49:36.136Z,100288.00
2018-06-28T15:52:04.024Z,100282.00
2018-06-28T15:54:31.810Z,100278.00
2018-06-28T15:56:59.778Z,100279.00
2018-06-28T15:59:27.677Z,100282.00
2018-06-28T16:01:55.496Z,100277.00
2018-06-28T16:04:23.305Z,100274.00
2018-06-28T16:06:51.243Z,100258.00
2018-06-28T16:09:19.076Z,100267.00
2018-06-28T16:11:46.928Z,100273.00
2018-06-28T16:14:14.791Z,100267.00
2018-06-28T16:16:42.676Z,100268.00
2018-06-28T16:19:10.590Z,100268.00
2018-06-28T16:21:38.458Z,100274.00
2018-06-28T16:24:06.342Z,100263.00
2018-06-28T16:26:34.138Z,100267.00
2018-06-28T16:29:02.045Z,100261.00
2018-06-28T16:31:29.888Z,100258.00
2018-06-28T16:33:57.686Z,100261.00
2018-06-28T16:36:25.573Z,100255.00
2018-06-28T16:38:53.483Z,100247.00
2018-06-28T16:41:21.384Z,100253.00
2018-06-28T16:43:49.729Z,100254.00
2018-06-28T16:46:17.621Z,100250.00
2018-06-28T16:48:45.432Z,100246.00
2018-06-28T16:51:13.347Z,100250.00
2018-06-28T16:53:41.243Z,100246.00
2018-06-28T16:56:09.229Z,100253.00
2018-06-28T16:58:37.148Z,100248.00
2018-06-28T17:01:05.036Z,100259.00
2018-06-28T17:03:32.912Z,100263.00
2018-06-28T17:06:00.765Z,100258.00
2018-06-28T17:08:28.632Z,100260.00
2018-06-28T17:10:56.467Z,100257.00
2018-06-28T17:13:24.230Z,100253.00
2018-06-28T17:15:52.025Z,100251.00
2018-06-28T17:18:19.941Z,100257.00
2018-06-28T17:20:47.788Z,100248.00
2018-06-28T17:23:15.608Z,100247.00
2018-06-28T17:25:43.448Z,100250.00
2018-06-28T17:28:11.325Z,100245.00
2018-06-28T17:30:39.260Z,100244.00
2018-06-28T17:33:07.281Z,100244.00
2018-06-28T17:35:35.141Z,100242.00
2018-06-28T17:38:03.078Z,100241.00
2018-06-28T17:40:30.952Z,100242.00
2018-06-28T17:43:12.213Z,100248.00
2018-06-28T17:45:40.100Z,100243.00
2018-06-28T17:48:08.008Z,100244.00
2018-06-28T17:50:35.880Z,100250.00
2018-06-28T17:53:03.723Z,100248.00
2018-06-28T17:55:31.669Z,100250.00
2018-06-28T17:57:59.540Z,100250.00
2018-06-28T18:00:27.360Z,100251.00
2018-06-28T18:02:55.224Z,100240.00
2018-06-28T18:05:23.234Z,100247.00
2018-06-28T18:07:51.085Z,100240.00
2018-06-28T18:10:18.945Z,100239.00
2018-06-28T18:12:46.868Z,100235.00
2018-06-28T18:15:14.775Z,100233.00
2018-06-28T18:17:42.517Z,100233.00
2018-06-28T18:20:10.400Z,100234.00
2018-06-28T18:22:39.287Z,100239.00
2018-06-28T18:25:08.161Z,100234.00
2018-06-28T18:27:46.408Z,100240.00
2018-06-28T18:30:14.270Z,100237.00
2018-06-28T18:32:42.184Z,100238.00
2018-06-28T18:35:10.049Z,100226.00
2018-06-28T18:37:37.910Z,100229.00
2018-06-28T18:40:05.892Z,100234.00
2018-06-28T18:42:33.885Z,100230.00
2018-06-28T18:45:01.882Z,100225.00
2018-06-28T18:47:29.788Z,100219.00
2018-06-28T18:49:57.652Z,100221.00
2018-06-28T18:52:25.578Z,100224.00
2018-06-28T18:54:53.519Z,100222.00
2018-06-28T18:57:21.592Z,100214.00
2018-06-28T18:59:49.434Z,100213.00
2018-06-28T19:02:17.363Z,100208.00
2018-06-28T19:04:45.229Z,100214.00
2018-06-28T19:07:13.149Z,100218.00
2018-06-28T19:09:46.693Z,100220.00
2018-06-28T19:12:14.624Z,100214.00
2018-06-28T19:14:48.211Z,100214.00
2018-06-28T19:17:16.175Z,100218.00
2018-06-28T19:19:44.064Z,100217.00
2018-06-28T19:22:17.677Z,100216.00
2018-06-28T19:24:45.566Z,100209.00
2018-06-28T19:27:33.133Z,100207.00
2018-06-28T19:30:06.906Z,100215.00
2018-06-28T19:32:34.804Z,100214.00
2018-06-28T19:35:03.005Z,100213.00
2018-06-28T19:37:36.641Z,100216.00
2018-06-28T19:40:12.761Z,100217.00
2018-06-28T19:42:46.453Z,100216.00
2018-06-28T19:45:14.782Z,100224.00
2018-06-28T19:47:42.669Z,100222.00
2018-06-28T19:50:16.217Z,100230.00
2018-06-28T19:52:49.798Z,100237.00
2018-06-28T19:55:17.878Z,100226.00
2018-06-28T19:57:45.716Z,100223.00
2018-06-28T20:00:19.433Z,100223.00
2018-06-28T20:02:53.163Z,100223.00
2018-06-28T20:05:21.080Z,100217.00
2018-06-28T20:07:48.899Z,100223.00
2018-06-28T20:10:16.686Z,100219.00
2018-06-28T20:12:50.279Z,100215.00
2018-06-28T20:15:24.736Z,100211.00
2018-06-28T20:18:01.890Z,100215.00
2018-06-28T20:20:31.767Z,100211.00
2018-06-28T20:22:59.649Z,100214.00
2018-06-28T20:25:27.802Z,100203.00
2018-06-28T20:28:01.426Z,100206.00
2018-06-28T20:30:35.033Z,100213.00
2018-06-28T20:33:08.644Z,100208.00
2018-06-28T20:35:36.475Z,100210.00
2018-06-28T20:38:04.304Z,100211.00
2018-06-28T20:40:32.180Z,100201.00
2018-06-28T20:42:59.940Z,100204.00
2018-06-28T20:45:27.827Z,100208.00
2018-06-28T20:47:55.687Z,100213.00
2018-06-28T20:50:23.524Z,100216.00
2018-06-28T20:52:51.365Z,100205.00
2018-06-28T20:55:19.131Z,100201.00
2018-06-28T20:57:47.055Z,100200.00
2018-06-28T21:00:14.896Z,100199.00
2018-06-28T21:02:42.843Z,100202.00
2018-06-28T21:05:10.656Z,100208.00
2018-06-28T21:07:45.054Z,100210.00
2018-06-28T21:10:26.503Z,100213.00
2018-06-28T21:12:57.636Z,100208.00
2018-06-28T21:15:44.337Z,100207.00
2018-06-28T21:18:31.077Z,100220.00
2018-06-28T21:20:59.000Z,100212.00
2018-06-28T21:23:26.875Z,100210.00
2018-06-28T21:26:09.668Z,100212.00
2018-06-28T21:28:45.873Z,100213.00
2018-06-28T21:31:13.841Z,100216.00
2018-06-28T21:33:41.751Z,100228.00
2018-06-28T21:36:09.672Z,100220.00
2018-06-28T21:38:37.512Z,100220.00
2018-06-28T21:41:06.163Z,100222.00
2018-06-28T21:43:34.005Z,100223.00
2018-06-28T21:46:05.263Z,100226.00
2018-06-28T21:48:34.198Z,100227.00
2018-06-28T21:51:02.091Z,100222.00
2018-06-28T21:53:29.888Z,100226.00
2018-06-28T21:55:57.808Z,100219.00
2018-06-28T21:58:38.809Z,100228.00
2018-06-28T22:01:21.556Z,100225.00
2018-06-28T22:04:06.457Z,100226.00
2018-06-28T22:06:34.397Z,100222.00
2018-06-28T22:09:23.819Z,100213.00
2018-06-28T22:12:05.100Z,100218.00
2018-06-28T22:14:32.925Z,100214.00
2018-06-28T22:17:00.784Z,100209.00
2018-06-28T22:19:39.120Z,100213.00
2018-06-28T22:22:16.849Z,100208.00
2018-06-28T22:24:44.722Z,100210.00
2018-06-28T22:27:19.221Z,100209.00
2018-06-28T22:29:47.125Z,100218.00
2018-06-28T22:32:15.041Z,100216.00
2018-06-28T22:34:46.767Z,100206.00
2018-06-28T22:37:28.014Z,100204.00
2018-06-28T22:39:55.832Z,100208.00
2018-06-28T22:42:23.692Z,100203.00
2018-06-28T22:44:51.439Z,100203.00
2018-06-28T22:47:19.379Z,100214.00
2018-06-28T22:49:47.238Z,100206.00
2018-06-28T22:52:15.130Z,100196.00
2018-06-28T22:54:43.000Z,100201.00
2018-06-28T22:57:10.898Z,100189.00
2018-06-28T22:59:38.748Z,100197.00
2018-06-28T23:02:06.579Z,100193.00
2018-06-28T23:04:34.498Z,100187.00
2018-06-28T23:07:02.454Z,100193.00
2018-06-28T23:09:30.260Z,100184.00
2018-06-28T23:11:58.134Z,100185.00
2018-06-28T23:14:25.991Z,100195.00
2018-06-28T23:16:53.912Z,100193.00
2018-06-28T23:19:21.743Z,100191.00
2018-06-28T23:21:49.624Z,100187.00
2018-06-28T23:24:17.536Z,100199.00
2018-06-28T23:26:45.392Z,100194.00
2018-06-28T23:29:13.327Z,100189.00
2018-06-28T23:31:41.158Z,100198.00
2018-06-28T23:34:09.025Z,100198.00
2018-06-28T23:36:37.134Z,100199.00
2018-06-28T23:39:08.151Z,100192.00
2018-06-28T23:41:36.052Z,100194.00
2018-06-28T23:44:04.680Z,100190.00
2018-06-28T23:46:32.805Z,100190.00
2018-06-28T23:49:00.775Z,100194.00
2018-06-28T23:51:29.616Z,100195.00
2018-06-28T23:53:57.481Z,100196.00
2018-06-28T23:56:25.387Z,100202.00
2018-06-28T23:58:53.309Z,100194.00
